createdAt,value
2019-03-30T00:01:55.320Z,98360.67
2019-03-30T00:07:00.990Z,98352.84
2019-03-30T00:12:07.148Z,98346.46
2019-03-30T00:17:12.722Z,98350.62
2019-03-30T00:22:18.895Z,98339.38
2019-03-30T00:27:25.115Z,98343.90
2019-03-30T00:32:32.558Z,98343.41
2019-03-30T00:37:38.463Z,98342.69
2019-03-30T00:42:43.915Z,98345.50
2019-03-30T00:47:48.756Z,98352.02
2019-03-30T00:52:57.312Z,98348.59
2019-03-30T00:58:02.401Z,98343.02
2019-03-30T01:03:07.081Z,98345.09
2019-03-30T01:08:11.582Z,98338.66
2019-03-30T01:13:16.363Z,98340.50
2019-03-30T01:18:20.917Z,98339.77
2019-03-30T01:23:25.534Z,98339.14
2019-03-30T01:28:31.716Z,98347.92
2019-03-30T01:33:36.255Z,98346.47
2019-03-30T01:38:41.112Z,98342.67
2019-03-30T01:43:47.301Z,98347.57
2019-03-30T01:48:52.119Z,98350.17
2019-03-30T01:53:56.774Z,98352.27
2019-03-30T01:59:01.436Z,98349.75
2019-03-30T02:04:06.030Z,98353.73
2019-03-30T02:09:11.807Z,98350.77
2019-03-30T02:14:16.551Z,98357.34
2019-03-30T02:19:21.296Z,98348.38
2019-03-30T02:24:26.035Z,98340.18
2019-03-30T02:29:30.881Z,98347.03
2019-03-30T02:34:35.528Z,98348.25
2019-03-30T02:39:40.281Z,98347.08
2019-03-30T02:44:45.006Z,98353.73
2019-03-30T02:49:51.288Z,98355.17
2019-03-30T02:54:55.841Z,98350.25
2019-03-30T03:00:00.567Z,98354.44
2019-03-30T03:05:06.750Z,98360.20
2019-03-30T03:10:11.487Z,98356.64
2019-03-30T03:15:16.356Z,98357.12
2019-03-30T03:20:21.063Z,98358.02
2019-03-30T03:25:25.921Z,98358.28
2019-03-30T03:30:30.559Z,98364.63
2019-03-30T03:35:35.304Z,98358.67
2019-03-30T03:40:39.938Z,98367.89
2019-03-30T03:45:44.579Z,98370.76
2019-03-30T03:50:51.464Z,98366.98
2019-03-30T03:55:55.972Z,98372.23
2019-03-30T04:01:02.244Z,98383.71
2019-03-30T04:06:07.051Z,98387.17
2019-03-30T04:11:12.731Z,98400.28
2019-03-30T04:16:18.194Z,98401.80
2019-03-30T04:21:23.002Z,98403.31
2019-03-30T04:26:27.747Z,98401.47
2019-03-30T04:31:32.391Z,98400.91
2019-03-30T04:36:38.367Z,98407.45
2019-03-30T04:41:43.110Z,98412.90
2019-03-30T04:46:47.846Z,98418.52
2019-03-30T04:51:57.766Z,98420.43
2019-03-30T04:56:58.867Z,98420.20
2019-03-30T05:02:03.713Z,98429.35
2019-03-30T05:07:08.451Z,98427.70
2019-03-30T05:12:13.293Z,98421.98
2019-03-30T05:17:18.248Z,98421.66
2019-03-30T05:22:24.113Z,98420.73
2019-03-30T05:27:28.969Z,98411.61
2019-03-30T05:32:33.806Z,98409.16
2019-03-30T05:37:39.754Z,98400.92
2019-03-30T05:42:44.520Z,98401.47
2019-03-30T05:47:49.470Z,98408.70
2019-03-30T05:52:54.315Z,98397.02
2019-03-30T05:58:00.006Z,98391.91
2019-03-30T06:03:04.725Z,98402.15
2019-03-30T06:08:09.566Z,98394.22
2019-03-30T06:13:14.483Z,98394.27
2019-03-30T06:18:20.141Z,98393.69
2019-03-30T06:23:25.123Z,98403.45
2019-03-30T06:28:29.869Z,98416.22
2019-03-30T06:33:34.803Z,98416.70
2019-03-30T06:38:41.890Z,98412.18
2019-03-30T06:43:46.767Z,98402.61
2019-03-30T06:48:51.516Z,98404.38
2019-03-30T06:53:56.251Z,98401.11
2019-03-30T06:59:00.988Z,98399.43
2019-03-30T07:04:05.735Z,98401.06
2019-03-30T07:09:10.578Z,98398.54
2019-03-30T07:14:15.420Z,98396.36
2019-03-30T07:19:20.164Z,98398.03
2019-03-30T07:24:24.815Z,98388.16
2019-03-30T07:29:29.861Z,98394.20
2019-03-30T07:34:34.739Z,98377.84
2019-03-30T07:39:39.546Z,98386.58
2019-03-30T07:44:44.343Z,98376.13
2019-03-30T07:49:49.570Z,98373.96
2019-03-30T07:54:54.147Z,98361.08
2019-03-30T07:59:58.872Z,98362.81
2019-03-30T08:05:08.551Z,98367.33
2019-03-30T08:10:13.453Z,98368.41
2019-03-30T08:15:18.591Z,98358.23
2019-03-30T08:20:24.204Z,98360.39
2019-03-30T08:25:29.012Z,98355.17
2019-03-30T08:30:35.098Z,98354.27
2019-03-30T08:35:40.115Z,98345.19
2019-03-30T08:40:45.213Z,98337.08
2019-03-30T08:45:50.422Z,98332.05
2019-03-30T08:50:55.070Z,98330.58
2019-03-30T08:56:01.551Z,98322.70
2019-03-30T09:01:06.297Z,98317.62
2019-03-30T09:06:11.139Z,98310.04
2019-03-30T09:11:15.997Z,98320.22
2019-03-30T09:16:20.729Z,98312.48
2019-03-30T09:21:25.474Z,98307.99
2019-03-30T09:26:30.435Z,98302.41
2019-03-30T09:31:35.373Z,98292.81
2019-03-30T09:36:40.177Z,98286.37
2019-03-30T09:41:44.958Z,98277.83
2019-03-30T09:46:50.783Z,98279.01
2019-03-30T09:51:55.572Z,98263.95
2019-03-30T09:57:00.337Z,98262.30
2019-03-30T10:02:05.159Z,98250.39
2019-03-30T10:07:09.800Z,98230.22
2019-03-30T10:12:14.548Z,98240.75
2019-03-30T10:17:19.299Z,98232.02
2019-03-30T10:22:24.055Z,98235.66
2019-03-30T10:27:28.775Z,98227.53
2019-03-30T10:32:33.626Z,98215.77
2019-03-30T10:37:38.494Z,98206.00
2019-03-30T10:42:43.311Z,98199.23
2019-03-30T10:47:48.200Z,98191.23
2019-03-30T10:52:54.762Z,98180.80
2019-03-30T10:57:59.628Z,98179.69
2019-03-30T11:03:04.437Z,98173.29
2019-03-30T11:08:09.447Z,98180.66
2019-03-30T11:13:14.333Z,98176.80
2019-03-30T11:18:22.172Z,98151.25
2019-03-30T11:23:27.200Z,98147.88
2019-03-30T11:28:33.378Z,98129.69
2019-03-30T11:33:38.250Z,98131.34
2019-03-30T11:38:42.963Z,98130.30
2019-03-30T11:43:51.116Z,98121.02
2019-03-30T11:48:57.580Z,98113.02
2019-03-30T11:54:02.632Z,98101.03
2019-03-30T11:59:08.088Z,98094.19
2019-03-30T12:04:12.829Z,98092.02
2019-03-30T12:09:17.671Z,98084.98
2019-03-30T12:14:22.514Z,98087.33
2019-03-30T12:19:28.992Z,98078.92
2019-03-30T12:24:34.193Z,98065.97
2019-03-30T12:29:39.997Z,98052.70
2019-03-30T12:34:46.850Z,98062.17
2019-03-30T12:39:52.014Z,98056.80
2019-03-30T12:44:57.262Z,98061.17
2019-03-30T12:50:02.183Z,98058.83
2019-03-30T12:55:08.567Z,98054.45
2019-03-30T13:00:13.305Z,98057.66
2019-03-30T13:05:18.049Z,98050.71
2019-03-30T13:10:22.829Z,98052.08
2019-03-30T13:15:27.741Z,98045.45
2019-03-30T13:20:32.487Z,98044.45
2019-03-30T13:25:38.057Z,98042.10
2019-03-30T13:30:43.283Z,98038.23
2019-03-30T13:35:47.877Z,98031.46
2019-03-30T13:40:53.708Z,98022.50
2019-03-30T13:45:58.714Z,98014.59
2019-03-30T13:51:03.403Z,98015.73
2019-03-30T13:56:17.129Z,98013.92
2019-03-30T14:01:15.449Z,98005.97
2019-03-30T14:06:20.190Z,98001.12
2019-03-30T14:11:25.544Z,98006.13
2019-03-30T14:16:31.215Z,97995.86
2019-03-30T14:21:36.061Z,97998.80
2019-03-30T14:26:41.697Z,97997.16
2019-03-30T14:31:46.570Z,97996.19
2019-03-30T14:36:51.414Z,97991.56
2019-03-30T14:41:57.082Z,97984.58
2019-03-30T14:47:01.750Z,97982.15
2019-03-30T14:52:06.439Z,97979.75
2019-03-30T14:57:11.209Z,97983.55
2019-03-30T15:02:15.957Z,97981.36
2019-03-30T15:07:20.535Z,97984.67
2019-03-30T15:12:25.344Z,97985.28
2019-03-30T15:17:30.078Z,97980.95
2019-03-30T15:22:35.027Z,97978.47
2019-03-30T15:27:39.884Z,97983.02
2019-03-30T15:32:48.715Z,97987.17
2019-03-30T15:37:54.374Z,97986.47
2019-03-30T15:42:59.653Z,97989.13
2019-03-30T15:48:06.631Z,97983.11
2019-03-30T15:53:15.336Z,97989.02
2019-03-30T15:58:22.735Z,97987.67
2019-03-30T16:03:30.778Z,97989.77
2019-03-30T16:08:40.967Z,97989.19
2019-03-30T16:13:50.050Z,97989.70
2019-03-30T16:19:00.831Z,97991.66
2019-03-30T16:24:08.511Z,97992.52
2019-03-30T16:29:13.352Z,97993.70
2019-03-30T16:34:17.967Z,97994.02
2019-03-30T16:39:23.964Z,97998.35
2019-03-30T16:44:28.809Z,98007.59
2019-03-30T16:49:34.650Z,98002.38
2019-03-30T16:54:39.427Z,98006.78
2019-03-30T16:59:44.850Z,98000.22
2019-03-30T17:04:49.837Z,98006.31
2019-03-30T17:09:54.575Z,98009.53
2019-03-30T17:14:59.315Z,98007.38
2019-03-30T17:20:06.668Z,98013.13
2019-03-30T17:25:12.087Z,98012.30
2019-03-30T17:30:16.833Z,98018.83
2019-03-30T17:35:21.573Z,98025.60
2019-03-30T17:40:26.312Z,98029.97
2019-03-30T17:45:31.984Z,98043.94
2019-03-30T17:50:36.824Z,98041.51
2019-03-30T17:55:41.415Z,98046.91
2019-03-30T18:00:46.726Z,98051.69
2019-03-30T18:05:51.365Z,98053.84
2019-03-30T18:10:56.113Z,98063.83
2019-03-30T18:16:00.745Z,98066.01
2019-03-30T18:21:05.489Z,98065.89
2019-03-30T18:26:14.969Z,98070.14
2019-03-30T18:31:21.165Z,98072.95
2019-03-30T18:36:27.665Z,98076.75
2019-03-30T18:41:36.245Z,98072.83
2019-03-30T18:46:46.248Z,98073.53
2019-03-30T18:51:51.557Z,98077.00
2019-03-30T18:57:01.275Z,98075.98
2019-03-30T19:02:18.995Z,98074.08
2019-03-30T19:07:29.159Z,98078.88
2019-03-30T19:12:35.212Z,98077.45
2019-03-30T19:17:40.159Z,98084.35
2019-03-30T19:22:45.010Z,98086.62
2019-03-30T19:27:49.689Z,98082.67
2019-03-30T19:32:55.329Z,98085.81
2019-03-30T19:38:02.904Z,98089.42
2019-03-30T19:43:07.877Z,98092.34
2019-03-30T19:48:12.616Z,98086.19
2019-03-30T19:53:17.458Z,98093.36
2019-03-30T19:58:22.141Z,98092.34
2019-03-30T20:03:26.928Z,98089.25
2019-03-30T20:08:31.890Z,98085.30
2019-03-30T20:13:36.636Z,98085.52
2019-03-30T20:18:41.480Z,98079.42
2019-03-30T20:23:46.222Z,98075.70
2019-03-30T20:28:51.270Z,98074.86
2019-03-30T20:33:56.735Z,98075.39
2019-03-30T20:39:02.579Z,98071.91
2019-03-30T20:44:10.132Z,98070.98
2019-03-30T20:49:14.966Z,98073.83
2019-03-30T20:54:20.801Z,98069.89
2019-03-30T20:59:39.033Z,98070.53
2019-03-30T21:04:31.956Z,98074.58
2019-03-30T21:09:36.793Z,98078.41
2019-03-30T21:14:41.546Z,98068.54
2019-03-30T21:19:46.446Z,98068.04
2019-03-30T21:24:52.356Z,98063.89
2019-03-30T21:29:56.986Z,98062.63
2019-03-30T21:35:01.747Z,98055.63
2019-03-30T21:40:07.704Z,98053.41
2019-03-30T21:45:12.343Z,98054.77
2019-03-30T21:50:16.979Z,98057.33
2019-03-30T21:55:21.531Z,98050.13
2019-03-30T22:00:37.536Z,98060.94
2019-03-30T22:05:42.184Z,98059.66
2019-03-30T22:10:46.917Z,98055.47
2019-03-30T22:15:51.657Z,98047.14
2019-03-30T22:20:56.398Z,98052.84
2019-03-30T22:26:01.143Z,98043.28
2019-03-30T22:31:05.730Z,98043.24
2019-03-30T22:36:10.311Z,98049.03
2019-03-30T22:41:14.999Z,98043.44
2019-03-30T22:46:20.737Z,98044.45
2019-03-30T22:51:26.098Z,98040.63
2019-03-30T22:56:31.248Z,98043.77
2019-03-30T23:01:36.594Z,98036.30
2019-03-30T23:06:41.231Z,98028.86
2019-03-30T23:11:45.982Z,98026.45
2019-03-30T23:16:50.722Z,98028.52
2019-03-30T23:21:55.476Z,98016.17
2019-03-30T23:27:00.205Z,98004.47
2019-03-30T23:32:04.956Z,98010.15
2019-03-30T23:37:09.691Z,98002.27
2019-03-30T23:42:14.539Z,98006.39
2019-03-30T23:47:19.157Z,98004.23
2019-03-30T23:52:23.924Z,97993.10
2019-03-30T23:57:28.763Z,97993.58
